Time,TemperatureF,DewpointF,PressureIn,WindDirection,WindDirectionDegrees,WindSpeedMPH,WindSpeedGustMPH,Humidity,HourlyPrecipIn,Conditions,Clouds,dailyrainin,SoftwareType,DateUTC
2013-02-12 00:03:00,44.4,40.5,30.11,NE,40,1.0,9.0,86,0.00,,,0.00,Wunderground v.1.15,2013-02-12 05:03:00,
2013-02-12 00:08:00,44.1,40.2,30.11,SW,224,0.0,9.0,86,0.00,,,0.00,Wunderground v.1.15,2013-02-12 05:08:00,
2013-02-12 00:13:00,43.2,39.6,30.11,SW,221,1.0,9.0,87,0.00,,,0.00,Wunderground v.1.15,2013-02-12 05:13:00,
2013-02-12 00:18:00,42.7,39.4,30.12,SW,221,1.0,1.0,88,0.00,,,0.00,Wunderground v.1.15,2013-02-12 05:18:00,
2013-02-12 00:23:00,42.4,39.7,30.13,WSW,246,0.0,9.0,90,0.00,,,0.00,Wunderground v.1.15,2013-02-12 05:23:00,
2013-02-12 00:28:00,42.3,39.6,30.12,WSW,246,0.0,9.0,90,0.00,,,0.00,Wunderground v.1.15,2013-02-12 05:28:00,
2013-02-12 00:33:00,42.1,39.7,30.12,WSW,246,0.0,9.0,91,0.00,,,0.00,Wunderground v.1.15,2013-02-12 05:33:00,
2013-02-12 00:38:00,41.9,39.5,30.12,WSW,246,0.0,9.0,91,0.00,,,0.00,Wunderground v.1.15,2013-02-12 05:38:00,
2013-02-12 00:43:00,42.0,39.8,30.13,WSW,246,0.0,9.0,92,0.00,,,0.00,Wunderground v.1.15,2013-02-12 05:43:00,
2013-02-12 00:53:00,42.0,39.8,30.11,WSW,246,0.0,9.0,92,0.00,,,0.00,Wunderground v.1.15,2013-02-12 05:53:00,
2013-02-12 00:58:00,42.1,39.9,30.12,WSW,246,0.0,9.0,92,0.00,,,0.00,Wunderground v.1.15,2013-02-12 05:58:00,
2013-02-12 01:03:00,42.2,40.3,30.12,West,262,1.0,9.0,93,0.00,,,0.00,Wunderground v.1.15,2013-02-12 06:03:00,
2013-02-12 01:08:00,41.7,39.5,30.12,West,262,1.0,1.0,92,0.00,,,0.00,Wunderground v.1.15,2013-02-12 06:08:00,
2013-02-12 01:13:00,41.3,39.2,30.12,West,263,0.0,9.0,92,0.00,,,0.00,Wunderground v.1.15,2013-02-12 06:13:00,
2013-02-12 01:18:00,40.9,39.0,30.12,West,263,0.0,9.0,93,0.00,,,0.00,Wunderground v.1.15,2013-02-12 06:18:00,
2013-02-12 01:23:00,40.9,39.0,30.12,West,263,0.0,9.0,93,0.00,,,0.00,Wunderground v.1.15,2013-02-12 06:23:00,
2013-02-12 01:28:00,40.7,39.1,30.12,West,263,0.0,9.0,94,0.00,,,0.00,Wunderground v.1.15,2013-02-12 06:28:00,
2013-02-12 01:33:00,41.1,39.8,30.13,NNW,334,0.0,9.0,95,0.00,,,0.00,Wunderground v.1.15,2013-02-12 06:33:00,
2013-02-12 01:38:00,41.1,39.5,30.13,WSW,258,1.0,9.0,94,0.00,,,0.00,Wunderground v.1.15,2013-02-12 06:38:00,
2013-02-12 01:43:00,40.9,39.3,30.12,SSW,198,1.0,9.0,94,0.00,,,0.00,Wunderground v.1.15,2013-02-12 06:43:00,
2013-02-12 01:48:00,40.8,39.2,30.11,SSW,198,0.0,9.0,94,0.00,,,0.00,Wunderground v.1.15,2013-02-12 06:48:00,
2013-02-12 01:58:00,40.9,39.6,30.11,West,280,1.0,9.0,95,0.00,,,0.00,Wunderground v.1.15,2013-02-12 06:58:00,
2013-02-12 02:03:00,40.9,39.6,30.12,West,280,1.0,9.0,95,0.00,,,0.00,Wunderground v.1.15,2013-02-12 07:03:00,
2013-02-12 02:08:00,40.7,39.4,30.12,West,279,1.0,1.0,95,0.00,,,0.00,Wunderground v.1.15,2013-02-12 07:08:00,
2013-02-12 02:13:00,40.6,39.3,30.12,West,280,0.0,9.0,95,0.00,,,0.00,Wunderground v.1.15,2013-02-12 07:13:00,
2013-02-12 02:18:00,40.6,39.3,30.12,West,280,0.0,9.0,95,0.00,,,0.00,Wunderground v.1.15,2013-02-12 07:18:00,
2013-02-12 02:23:00,40.7,39.4,30.12,West,280,0.0,9.0,95,0.00,,,0.00,Wunderground v.1.15,2013-02-12 07:23:00,
2013-02-12 02:33:00,40.8,39.7,30.12,North,351,0.0,9.0,96,0.00,,,0.00,Wunderground v.1.15,2013-02-12 07:33:00,
2013-02-12 02:38:00,40.9,39.8,30.12,North,359,1.0,9.0,96,0.00,,,0.00,Wunderground v.1.15,2013-02-12 07:38:00,
2013-02-12 02:43:00,40.9,39.8,30.12,North,359,1.0,9.0,96,0.00,,,0.00,Wunderground v.1.15,2013-02-12 07:43:00,
2013-02-12 02:48:00,40.8,39.7,30.12,North,358,0.0,9.0,96,0.00,,,0.00,Wunderground v.1.15,2013-02-12 07:48:00,
2013-02-12 02:53:00,41.0,39.9,30.13,North,358,0.0,9.0,96,0.00,,,0.00,Wunderground v.1.15,2013-02-12 07:53:00,
2013-02-12 03:03:00,40.7,39.4,30.14,NNW,332,0.0,9.0,95,0.00,,,0.00,Wunderground v.1.15,2013-02-12 08:03:00,
2013-02-12 03:08:00,40.5,39.2,30.14,NNW,332,0.0,9.0,95,0.00,,,0.00,Wunderground v.1.15,2013-02-12 08:08:00,
2013-02-12 03:13:00,40.7,39.6,30.15,NNW,332,0.0,9.0,96,0.00,,,0.00,Wunderground v.1.15,2013-02-12 08:13:00,
2013-02-12 03:18:00,41.0,39.9,30.14,ENE,69,0.0,9.0,96,0.00,,,0.00,Wunderground v.1.15,2013-02-12 08:18:00,
2013-02-12 03:23:00,41.5,40.7,30.13,ENE,70,1.0,9.0,97,0.00,,,0.00,Wunderground v.1.15,2013-02-12 08:23:00,
2013-02-12 03:28:00,41.7,40.6,30.12,ENE,63,2.0,9.0,96,0.00,,,0.00,Wunderground v.1.15,2013-02-12 08:28:00,
2013-02-12 03:38:00,41.9,40.0,30.12,NE,41,3.0,9.0,93,0.00,,,0.00,Wunderground v.1.15,2013-02-12 08:38:00,
2013-02-12 03:43:00,42.1,40.2,30.12,NE,34,4.0,9.0,93,0.00,,,0.00,Wunderground v.1.15,2013-02-12 08:43:00,
2013-02-12 03:48:00,41.9,39.7,30.11,NE,34,2.0,2.0,92,0.00,,,0.00,Wunderground v.1.15,2013-02-12 08:48:00,
2013-02-12 03:53:00,41.8,39.4,30.10,NE,34,0.0,9.0,91,0.00,,,0.00,Wunderground v.1.15,2013-02-12 08:53:00,
2013-02-12 03:58:00,41.8,39.4,30.12,NNW,333,1.0,9.0,91,0.00,,,0.00,Wunderground v.1.15,2013-02-12 08:58:00,
2013-02-12 04:07:00,41.5,39.3,30.13,NNE,20,3.0,3.0,92,0.00,,,0.00,Wunderground v.1.15,2013-02-12 09:07:00,
2013-02-12 04:12:00,41.6,38.9,30.13,NNE,32,3.0,9.0,90,0.00,,,0.00,Wunderground v.1.15,2013-02-12 09:12:00,
2013-02-12 04:17:00,41.9,38.6,30.12,NE,44,2.0,2.0,88,0.00,,,0.00,Wunderground v.1.15,2013-02-12 09:17:00,
2013-02-12 04:23:00,42.1,38.8,30.11,East,92,1.0,9.0,88,0.00,,,0.00,Wunderground v.1.15,2013-02-12 09:23:00,
2013-02-12 04:28:00,42.1,38.5,30.11,ENE,73,1.0,9.0,87,0.00,,,0.00,Wunderground v.1.15,2013-02-12 09:28:00,
2013-02-12 04:33:00,42.0,38.1,30.10,East,85,1.0,9.0,86,0.00,,,0.00,Wunderground v.1.15,2013-02-12 09:33:00,
2013-02-12 04:38:00,42.1,38.2,30.10,NE,56,2.0,9.0,86,0.00,,,0.00,Wunderground v.1.15,2013-02-12 09:38:00,
2013-02-12 04:43:00,42.3,38.1,30.11,NE,34,3.0,9.0,85,0.00,,,0.00,Wunderground v.1.15,2013-02-12 09:43:00,
2013-02-12 04:48:00,42.5,38.0,30.11,NE,44,3.0,3.0,84,0.00,,,0.00,Wunderground v.1.15,2013-02-12 09:48:00,
2013-02-12 04:53:00,42.6,37.8,30.12,ENE,65,3.0,9.0,83,0.00,,,0.00,Wunderground v.1.15,2013-02-12 09:53:00,
2013-02-12 04:58:00,42.5,37.7,30.12,ENE,65,1.0,1.0,83,0.00,,,0.00,Wunderground v.1.15,2013-02-12 09:58:00,
2013-02-12 05:03:00,42.4,37.6,30.12,ENE,65,0.0,9.0,83,0.00,,,0.00,Wunderground v.1.15,2013-02-12 10:03:00,
2013-02-12 05:13:00,41.9,37.4,30.13,ENE,65,0.0,9.0,84,0.00,,,0.00,Wunderground v.1.15,2013-02-12 10:13:00,
2013-02-12 05:18:00,41.6,37.7,30.13,ENE,65,0.0,9.0,86,0.00,,,0.00,Wunderground v.1.15,2013-02-12 10:18:00,
2013-02-12 05:23:00,41.7,38.4,30.13,NNE,32,1.0,9.0,88,0.00,,,0.00,Wunderground v.1.15,2013-02-12 10:23:00,
2013-02-12 05:28:00,42.3,37.5,30.13,NE,37,3.0,9.0,83,0.00,,,0.00,Wunderground v.1.15,2013-02-12 10:28:00,
2013-02-12 05:33:00,42.6,36.5,30.12,ENE,73,4.0,9.0,79,0.00,,,0.00,Wunderground v.1.15,2013-02-12 10:33:00,
2013-02-12 05:43:00,43.5,35.4,30.11,ENE,63,3.0,9.0,73,0.00,,,0.00,Wunderground v.1.15,2013-02-12 10:43:00,
2013-02-12 05:48:00,43.6,36.5,30.09,ENE,62,4.0,9.0,76,0.00,,,0.00,Wunderground v.1.15,2013-02-12 10:48:00,
2013-02-12 05:53:00,42.8,36.4,30.11,NW,309,4.0,9.0,78,0.00,,,0.00,Wunderground v.1.15,2013-02-12 10:53:00,
2013-02-12 05:58:00,42.7,36.3,30.13,NNE,16,2.0,3.0,78,0.00,,,0.00,Wunderground v.1.15,2013-02-12 10:58:00,
2013-02-12 06:07:00,42.2,35.8,30.14,North,9,1.0,1.0,78,0.00,,,0.00,Wunderground v.1.15,2013-02-12 11:07:00,
2013-02-12 06:13:00,41.7,35.7,30.14,WSW,252,0.0,1.0,79,0.00,,,0.00,Wunderground v.1.15,2013-02-12 11:13:00,
2013-02-12 06:18:00,41.3,35.6,30.14,SSW,201,0.0,0.0,80,0.00,,,0.00,Wunderground v.1.15,2013-02-12 11:18:00,
2013-02-12 06:23:00,40.8,35.4,30.14,SSW,201,1.0,1.0,81,0.00,,,0.00,Wunderground v.1.15,2013-02-12 11:23:00,
2013-02-12 06:28:00,40.3,35.2,30.15,SW,217,0.0,1.0,82,0.00,,,0.00,Wunderground v.1.15,2013-02-12 11:28:00,
2013-02-12 06:33:00,40.0,34.6,30.14,SW,217,0.0,1.0,81,0.00,,,0.00,Wunderground v.1.15,2013-02-12 11:33:00,
2013-02-12 06:38:00,39.7,34.3,30.15,WSW,248,1.0,1.0,81,0.00,,,0.00,Wunderground v.1.15,2013-02-12 11:38:00,
2013-02-12 06:48:00,38.8,34.4,30.14,SW,231,1.0,1.0,84,0.00,,,0.00,Wunderground v.1.15,2013-02-12 11:48:00,
2013-02-12 06:53:00,38.6,34.8,30.15,SW,235,0.0,8.0,86,0.00,,,0.00,Wunderground v.1.15,2013-02-12 11:53:00,
2013-02-12 06:58:00,38.3,34.8,30.15,SW,235,0.0,8.0,87,0.00,,,0.00,Wunderground v.1.15,2013-02-12 11:58:00,
2013-02-12 07:03:00,38.2,35.0,30.17,WSW,246,0.0,8.0,88,0.00,,,0.00,Wunderground v.1.15,2013-02-12 12:03:00,
2013-02-12 07:08:00,38.0,34.8,30.17,WNW,283,1.0,1.0,88,0.00,,,0.00,Wunderground v.1.15,2013-02-12 12:08:00,
2013-02-12 07:13:00,37.8,34.6,30.17,WNW,284,1.0,8.0,88,0.00,,,0.00,Wunderground v.1.15,2013-02-12 12:13:00,
2013-02-12 07:23:00,38.0,35.0,30.15,ENE,60,1.0,8.0,89,0.00,,,0.00,Wunderground v.1.15,2013-02-12 12:23:00,
2013-02-12 07:28:00,38.3,35.3,30.15,NE,41,2.0,2.0,89,0.00,,,0.00,Wunderground v.1.15,2013-02-12 12:28:00,
2013-02-12 07:33:00,38.4,35.2,30.15,SE,129,1.0,8.0,88,0.00,,,0.00,Wunderground v.1.15,2013-02-12 12:33:00,
2013-02-12 07:38:00,38.3,34.8,30.15,SE,128,0.0,8.0,87,0.00,,,0.00,Wunderground v.1.15,2013-02-12 12:38:00,
2013-02-12 07:43:00,37.6,34.1,30.16,West,264,0.0,8.0,87,0.00,,,0.00,Wunderground v.1.15,2013-02-12 12:43:00,
2013-02-12 07:53:00,36.6,34.2,30.16,NNE,13,1.0,8.0,91,0.00,,,0.00,Wunderground v.1.15,2013-02-12 12:53:00,
2013-02-12 07:58:00,36.9,34.5,30.16,NE,49,2.0,8.0,91,0.00,,,0.00,Wunderground v.1.15,2013-02-12 12:58:00,
2013-02-12 08:03:00,37.5,34.8,30.17,ENE,57,2.0,8.0,90,0.00,,,0.00,Wunderground v.1.15,2013-02-12 13:03:00,
2013-02-12 08:08:00,38.1,34.9,30.16,East,90,2.0,2.0,88,0.00,,,0.00,Wunderground v.1.15,2013-02-12 13:08:00,
2013-02-12 08:13:00,38.6,35.1,30.15,East,81,1.0,8.0,87,0.00,,,0.00,Wunderground v.1.15,2013-02-12 13:13:00,
2013-02-12 08:18:00,38.7,35.2,30.15,ENE,66,1.0,8.0,87,0.00,,,0.00,Wunderground v.1.15,2013-02-12 13:18:00,
2013-02-12 08:28:00,39.1,35.3,30.15,ENE,69,1.0,8.0,86,0.00,,,0.00,Wunderground v.1.15,2013-02-12 13:28:00,
2013-02-12 08:33:00,39.7,35.6,30.15,ENE,65,2.0,8.0,85,0.00,,,0.00,Wunderground v.1.15,2013-02-12 13:33:00,
2013-02-12 08:38:00,40.3,35.5,30.15,ENE,60,2.0,2.0,83,0.00,,,0.00,Wunderground v.1.15,2013-02-12 13:38:00,
2013-02-12 08:43:00,40.9,35.5,30.14,NNE,32,2.0,3.0,81,0.00,,,0.00,Wunderground v.1.15,2013-02-12 13:43:00,
2013-02-12 08:48:00,41.3,35.6,30.14,NE,43,2.0,8.0,80,0.00,,,0.00,Wunderground v.1.15,2013-02-12 13:48:00,
2013-02-12 08:58:00,42.4,35.4,30.14,ENE,62,3.0,8.0,76,0.00,,,0.00,Wunderground v.1.15,2013-02-12 13:58:00,
2013-02-12 09:03:00,43.0,35.3,30.13,East,82,4.0,8.0,74,0.00,,,0.00,Wunderground v.1.15,2013-02-12 14:03:00,
2013-02-12 09:08:00,43.5,35.4,30.12,East,89,5.0,8.0,73,0.00,,,0.00,Wunderground v.1.15,2013-02-12 14:08:00,
2013-02-12 09:13:00,44.0,35.6,30.13,ENE,57,5.0,8.0,72,0.00,,,0.00,Wunderground v.1.15,2013-02-12 14:13:00,
2013-02-12 09:18:00,44.5,35.3,30.12,ESE,116,5.0,5.0,70,0.00,,,0.00,Wunderground v.1.15,2013-02-12 14:18:00,
2013-02-12 09:23:00,45.0,35.1,30.12,ENE,60,4.0,7.0,68,0.00,,,0.00,Wunderground v.1.15,2013-02-12 14:23:00,
2013-02-12 09:28:00,45.5,35.2,30.12,ENE,60,4.0,8.0,67,0.00,,,0.00,Wunderground v.1.15,2013-02-12 14:28:00,
2013-02-12 09:33:00,45.9,34.8,30.12,ENE,68,5.0,8.0,65,0.00,,,0.00,Wunderground v.1.15,2013-02-12 14:33:00,
2013-02-12 09:38:00,46.3,34.8,30.12,ENE,60,5.0,8.0,64,0.00,,,0.00,Wunderground v.1.15,2013-02-12 14:38:00,
2013-02-12 09:43:00,46.6,34.3,30.13,ENE,70,6.0,8.0,62,0.00,,,0.00,Wunderground v.1.15,2013-02-12 14:43:00,
2013-02-12 09:48:00,47.0,35.0,30.13,NE,49,6.0,6.0,63,0.00,,,0.00,Wunderground v.1.15,2013-02-12 14:48:00,
2013-02-12 09:53:00,47.3,34.5,30.13,ENE,61,6.0,8.0,61,0.00,,,0.00,Wunderground v.1.15,2013-02-12 14:53:00,
2013-02-12 10:03:00,48.1,34.4,30.13,ENE,68,5.0,8.0,59,0.00,,,0.00,Wunderground v.1.15,2013-02-12 15:03:00,
2013-02-12 10:08:00,48.4,34.3,30.12,ENE,78,6.0,8.0,58,0.00,,,0.00,Wunderground v.1.15,2013-02-12 15:08:00,
2013-02-12 10:13:00,48.6,33.6,30.11,East,84,5.0,10.0,56,0.00,,,0.00,Wunderground v.1.15,2013-02-12 15:13:00,
2013-02-12 10:18:00,48.9,33.9,30.10,NE,37,5.0,8.0,56,0.00,,,0.00,Wunderground v.1.15,2013-02-12 15:18:00,
2013-02-12 10:23:00,49.1,33.6,30.09,NE,44,7.0,8.0,55,0.00,,,0.00,Wunderground v.1.15,2013-02-12 15:23:00,
2013-02-12 10:33:00,49.7,33.2,30.09,East,89,6.0,8.0,53,0.00,,,0.00,Wunderground v.1.15,2013-02-12 15:33:00,
2013-02-12 10:38:00,50.1,33.1,30.08,ENE,72,5.0,9.0,52,0.00,,,0.00,Wunderground v.1.15,2013-02-12 15:38:00,
2013-02-12 10:43:00,50.4,34.4,30.08,East,98,5.0,9.0,54,0.00,,,0.00,Wunderground v.1.15,2013-02-12 15:43:00,
2013-02-12 10:48:00,50.9,33.4,30.09,East,95,5.0,5.0,51,0.00,,,0.00,Wunderground v.1.15,2013-02-12 15:48:00,
2013-02-12 10:53:00,51.2,34.6,30.09,ENE,68,4.0,6.0,53,0.00,,,0.00,Wunderground v.1.15,2013-02-12 15:53:00,
2013-02-12 10:58:00,51.2,33.2,30.08,NE,54,5.0,8.0,50,0.00,,,0.00,Wunderground v.1.15,2013-02-12 15:58:00,
2013-02-12 11:08:00,51.4,32.9,30.08,ESE,102,5.0,5.0,49,0.00,,,0.00,Wunderground v.1.15,2013-02-12 16:08:00,
2013-02-12 11:13:00,51.3,32.3,30.08,East,88,3.0,8.0,48,0.00,,,0.00,Wunderground v.1.15,2013-02-12 16:13:00,
2013-02-12 11:18:00,51.3,32.3,30.08,NE,54,4.0,8.0,48,0.00,,,0.00,Wunderground v.1.15,2013-02-12 16:18:00,
2013-02-12 11:23:00,51.5,33.0,30.08,East,84,4.0,8.0,49,0.00,,,0.00,Wunderground v.1.15,2013-02-12 16:23:00,
2013-02-12 11:28:00,51.7,32.6,30.09,NE,54,4.0,4.0,48,0.00,,,0.00,Wunderground v.1.15,2013-02-12 16:28:00,
2013-02-12 11:38:00,51.8,31.7,30.09,ENE,61,3.0,8.0,46,0.00,,,0.00,Wunderground v.1.15,2013-02-12 16:38:00,
2013-02-12 11:43:00,51.7,32.1,30.10,ENE,60,4.0,8.0,47,0.00,,,0.00,Wunderground v.1.15,2013-02-12 16:43:00,
2013-02-12 11:48:00,51.7,32.1,30.10,East,88,4.0,4.0,47,0.00,,,0.00,Wunderground v.1.15,2013-02-12 16:48:00,
2013-02-12 11:53:00,51.7,31.6,30.10,ENE,59,3.0,8.0,46,0.00,,,0.00,Wunderground v.1.15,2013-02-12 16:53:00,
2013-02-12 11:58:00,51.8,32.2,30.11,ENE,74,3.0,3.0,47,0.00,,,0.00,Wunderground v.1.15,2013-02-12 16:58:00,
2013-02-12 12:03:00,52.0,31.8,30.10,NE,34,2.0,8.0,46,0.00,,,0.00,Wunderground v.1.15,2013-02-12 17:03:00,
2013-02-12 12:13:00,52.4,34.8,30.09,East,96,1.0,8.0,51,0.00,,,0.00,Wunderground v.1.15,2013-02-12 17:13:00,
2013-02-12 12:18:00,52.5,32.8,30.09,East,85,1.0,1.0,47,0.00,,,0.00,Wunderground v.1.15,2013-02-12 17:18:00,
2013-02-12 12:23:00,52.2,32.6,30.09,SSE,163,2.0,2.0,47,0.00,,,0.00,Wunderground v.1.15,2013-02-12 17:23:00,
2013-02-12 12:28:00,52.4,33.3,30.09,NNE,22,1.0,8.0,48,0.00,,,0.00,Wunderground v.1.15,2013-02-12 17:28:00,
2013-02-12 12:33:00,52.4,33.3,30.08,NE,51,0.0,8.0,48,0.00,,,0.00,Wunderground v.1.15,2013-02-12 17:33:00,
2013-02-12 12:42:00,52.2,32.6,30.08,SE,129,2.0,8.0,47,0.00,,,0.00,Wunderground v.1.15,2013-02-12 17:42:00,
2013-02-12 12:47:00,52.3,33.2,30.09,North,9,1.0,8.0,48,0.00,,,0.00,Wunderground v.1.15,2013-02-12 17:47:00,
2013-02-12 12:52:00,52.3,31.6,30.08,NE,44,1.0,8.0,45,0.00,,,0.00,Wunderground v.1.15,2013-02-12 17:52:00,
2013-02-12 12:57:00,52.1,32.5,30.08,ENE,62,2.0,8.0,47,0.00,,,0.00,Wunderground v.1.15,2013-02-12 17:57:00,
2013-02-12 13:02:00,52.1,33.5,30.07,ENE,70,2.0,8.0,49,0.00,,,0.00,Wunderground v.1.15,2013-02-12 18:02:00,
2013-02-12 13:07:00,52.1,32.5,30.07,East,92,2.0,8.0,47,0.00,,,0.00,Wunderground v.1.15,2013-02-12 18:07:00,
2013-02-12 13:13:00,52.0,32.9,30.07,ENE,75,2.0,8.0,48,0.00,,,0.00,Wunderground v.1.15,2013-02-12 18:13:00,
2013-02-12 13:18:00,52.1,32.5,30.06,NE,47,2.0,8.0,47,0.00,,,0.00,Wunderground v.1.15,2013-02-12 18:18:00,
2013-02-12 13:23:00,52.1,33.0,30.05,ENE,60,2.0,8.0,48,0.00,,,0.00,Wunderground v.1.15,2013-02-12 18:23:00,
2013-02-12 13:28:00,52.0,33.4,30.03,ENE,68,3.0,8.0,49,0.00,,,0.00,Wunderground v.1.15,2013-02-12 18:28:00,
2013-02-12 13:33:00,52.1,33.0,30.03,ENE,71,4.0,8.0,48,0.00,,,0.00,Wunderground v.1.15,2013-02-12 18:33:00,
2013-02-12 13:38:00,52.4,32.7,30.03,NE,53,5.0,5.0,47,0.00,,,0.00,Wunderground v.1.15,2013-02-12 18:38:00,
2013-02-12 13:48:00,52.3,32.6,30.02,NE,49,5.0,5.0,47,0.00,,,0.00,Wunderground v.1.15,2013-02-12 18:48:00,
2013-02-12 13:53:00,52.4,33.8,30.03,ENE,75,4.0,8.0,49,0.00,,,0.00,Wunderground v.1.15,2013-02-12 18:53:00,
2013-02-12 13:58:00,52.4,33.3,30.03,ESE,121,2.0,2.0,48,0.00,,,0.00,Wunderground v.1.15,2013-02-12 18:58:00,
2013-02-12 14:03:00,52.4,32.7,30.05,NNE,16,1.0,8.0,47,0.00,,,0.00,Wunderground v.1.15,2013-02-12 19:03:00,
2013-02-12 14:08:00,52.2,32.0,30.05,NNE,17,1.0,8.0,46,0.00,,,0.00,Wunderground v.1.15,2013-02-12 19:08:00,
2013-02-12 14:18:00,52.1,31.9,30.04,NE,56,3.0,3.0,46,0.00,,,0.00,Wunderground v.1.15,2013-02-12 19:18:00,
2013-02-12 14:23:00,52.1,32.5,30.04,ENE,60,2.0,8.0,47,0.00,,,0.00,Wunderground v.1.15,2013-02-12 19:23:00,
2013-02-12 14:28:00,52.1,33.0,30.04,NE,34,2.0,8.0,48,0.00,,,0.00,Wunderground v.1.15,2013-02-12 19:28:00,
2013-02-12 14:33:00,52.2,33.1,30.02,NE,54,3.0,8.0,48,0.00,,,0.00,Wunderground v.1.15,2013-02-12 19:33:00,
2013-02-12 14:38:00,52.2,34.1,30.02,ENE,59,3.0,8.0,50,0.00,,,0.00,Wunderground v.1.15,2013-02-12 19:38:00,
2013-02-12 14:43:00,52.2,33.1,30.02,NE,49,3.0,8.0,48,0.00,,,0.00,Wunderground v.1.15,2013-02-12 19:43:00,
2013-02-12 14:53:00,52.2,33.6,30.03,NE,43,4.0,8.0,49,0.00,,,0.00,Wunderground v.1.15,2013-02-12 19:53:00,
2013-02-12 14:58:00,52.1,33.5,30.03,NE,49,4.0,4.0,49,0.00,,,0.00,Wunderground v.1.15,2013-02-12 19:58:00,
2013-02-12 15:03:00,52.1,34.5,30.02,ENE,77,2.0,8.0,51,0.00,,,0.00,Wunderground v.1.15,2013-02-12 20:03:00,
2013-02-12 15:08:00,52.1,34.0,30.01,ENE,72,2.0,2.0,50,0.00,,,0.00,Wunderground v.1.15,2013-02-12 20:08:00,
2013-02-12 15:13:00,52.1,34.5,30.02,NE,49,3.0,3.0,51,0.00,,,0.00,Wunderground v.1.15,2013-02-12 20:13:00,
2013-02-12 15:23:00,52.2,34.1,30.02,NE,46,1.0,8.0,50,0.00,,,0.00,Wunderground v.1.15,2013-02-12 20:23:00,
2013-02-12 15:28:00,52.3,34.2,30.02,NE,43,1.0,8.0,50,0.00,,,0.00,Wunderground v.1.15,2013-02-12 20:28:00,
2013-02-12 15:33:00,52.4,34.8,30.00,NE,44,3.0,8.0,51,0.00,,,0.00,Wunderground v.1.15,2013-02-12 20:33:00,
2013-02-12 15:38:00,52.2,34.6,30.01,NE,44,4.0,8.0,51,0.00,,,0.00,Wunderground v.1.15,2013-02-12 20:38:00,
2013-02-12 15:43:00,52.1,34.5,30.01,NE,45,4.0,8.0,51,0.00,,,0.00,Wunderground v.1.15,2013-02-12 20:43:00,
2013-02-12 15:48:00,52.1,34.5,30.02,ENE,60,4.0,4.0,51,0.00,,,0.00,Wunderground v.1.15,2013-02-12 20:48:00,
2013-02-12 15:58:00,52.0,34.9,30.00,ENE,58,2.0,8.0,52,0.00,,,0.00,Wunderground v.1.15,2013-02-12 20:58:00,
2013-02-12 16:03:00,51.9,34.8,29.99,NE,46,2.0,8.0,52,0.00,,,0.00,Wunderground v.1.15,2013-02-12 21:03:00,
2013-02-12 16:08:00,51.8,35.7,30.00,NE,43,3.0,8.0,54,0.00,,,0.00,Wunderground v.1.15,2013-02-12 21:08:00,
2013-02-12 16:13:00,51.7,35.1,29.99,ENE,65,3.0,8.0,53,0.00,,,0.00,Wunderground v.1.15,2013-02-12 21:13:00,
2013-02-12 16:18:00,51.7,35.1,29.99,ENE,63,3.0,3.0,53,0.00,,,0.00,Wunderground v.1.15,2013-02-12 21:18:00,
2013-02-12 16:27:00,51.6,35.0,29.98,ENE,68,2.0,8.0,53,0.00,,,0.00,Wunderground v.1.15,2013-02-12 21:27:00,
2013-02-12 16:32:00,51.6,33.6,29.97,ENE,68,2.0,8.0,50,0.00,,,0.00,Wunderground v.1.15,2013-02-12 21:32:00,
2013-02-12 16:37:00,51.6,33.0,29.97,ENE,66,3.0,8.0,49,0.00,,,0.00,Wunderground v.1.15,2013-02-12 21:37:00,
2013-02-12 16:43:00,51.5,34.0,29.96,ENE,65,3.0,8.0,51,0.00,,,0.00,Wunderground v.1.15,2013-02-12 21:43:00,
2013-02-12 16:48:00,51.4,33.9,29.95,NE,49,3.0,3.0,51,0.00,,,0.00,Wunderground v.1.15,2013-02-12 21:48:00,
2013-02-12 16:53:00,51.3,33.8,29.95,NE,54,3.0,5.0,51,0.00,,,0.00,Wunderground v.1.15,2013-02-12 21:53:00,
2013-02-12 16:58:00,51.2,34.2,29.96,ENE,60,4.0,4.0,52,0.00,,,0.00,Wunderground v.1.15,2013-02-12 21:58:00,
2013-02-12 17:03:00,51.2,33.7,29.96,NE,53,4.0,8.0,51,0.00,,,0.00,Wunderground v.1.15,2013-02-12 22:03:00,
2013-02-12 17:08:00,51.1,34.1,29.96,ENE,57,4.0,8.0,52,0.00,,,0.00,Wunderground v.1.15,2013-02-12 22:08:00,
2013-02-12 17:13:00,51.0,34.0,29.95,NE,46,3.0,8.0,52,0.00,,,0.00,Wunderground v.1.15,2013-02-12 22:13:00,
2013-02-12 17:22:00,50.8,34.7,29.94,ENE,59,4.0,8.0,54,0.00,,,0.00,Wunderground v.1.15,2013-02-12 22:22:00,
2013-02-12 17:28:00,50.7,34.2,29.93,NE,41,4.0,4.0,53,0.00,,,0.00,Wunderground v.1.15,2013-02-12 22:28:00,
2013-02-12 17:33:00,50.6,34.1,29.92,NE,42,4.0,8.0,53,0.00,,,0.00,Wunderground v.1.15,2013-02-12 22:33:00,
2013-02-12 17:38:00,50.6,34.6,29.92,NE,54,4.0,4.0,54,0.00,,,0.00,Wunderground v.1.15,2013-02-12 22:38:00,
2013-02-12 17:43:00,50.5,34.5,29.94,NE,50,4.0,8.0,54,0.00,,,0.00,Wunderground v.1.15,2013-02-12 22:43:00,
2013-02-12 17:48:00,50.6,34.1,29.96,NNW,333,3.0,3.0,53,0.00,,,0.00,Wunderground v.1.15,2013-02-12 22:48:00,
2013-02-12 17:53:00,50.4,34.4,29.97,NW,305,3.0,8.0,54,0.00,,,0.00,Wunderground v.1.15,2013-02-12 22:53:00,
2013-02-12 18:03:00,50.0,34.9,29.98,West,262,1.0,8.0,56,0.00,,,0.00,Wunderground v.1.15,2013-02-12 23:03:00,
2013-02-12 18:08:00,49.8,34.3,29.98,West,262,0.0,8.0,55,0.00,,,0.00,Wunderground v.1.15,2013-02-12 23:08:00,
2013-02-12 18:13:00,49.7,34.2,29.98,West,262,0.0,8.0,55,0.00,,,0.00,Wunderground v.1.15,2013-02-12 23:13:00,
2013-02-12 18:18:00,49.6,34.1,29.98,West,262,0.0,8.0,55,0.00,,,0.00,Wunderground v.1.15,2013-02-12 23:18:00,
2013-02-12 18:23:00,49.5,35.3,29.98,SW,228,0.0,8.0,58,0.00,,,0.00,Wunderground v.1.15,2013-02-12 23:23:00,
2013-02-12 18:28:00,49.3,35.1,29.97,SW,228,1.0,8.0,58,0.00,,,0.00,Wunderground v.1.15,2013-02-12 23:28:00,
2013-02-12 18:38:00,48.9,35.6,29.96,SW,228,0.0,8.0,60,0.00,,,0.00,Wunderground v.1.15,2013-02-12 23:38:00,
2013-02-12 18:43:00,48.9,36.9,29.96,SW,228,0.0,8.0,63,0.00,,,0.00,Wunderground v.1.15,2013-02-12 23:43:00,
2013-02-12 18:48:00,48.7,38.2,29.97,NNW,333,0.0,8.0,67,0.00,,,0.00,Wunderground v.1.15,2013-02-12 23:48:00,
2013-02-12 18:53:00,48.5,37.7,29.96,NNW,333,0.0,8.0,66,0.00,,,0.00,Wunderground v.1.15,2013-02-12 23:53:00,
2013-02-12 18:58:00,48.2,38.1,29.97,NNW,333,0.0,8.0,68,0.00,,,0.00,Wunderground v.1.15,2013-02-12 23:58:00,
2013-02-12 19:08:00,47.3,39.1,29.96,NE,53,0.0,8.0,73,0.00,,,0.01,Wunderground v.1.15,2013-02-13 00:08:00,
2013-02-12 19:13:00,47.0,40.2,29.95,NE,54,0.0,8.0,77,0.00,,,0.01,Wunderground v.1.15,2013-02-13 00:13:00,
2013-02-12 19:18:00,46.8,41.3,29.94,ENE,70,1.0,8.0,81,0.06,,,0.02,Wunderground v.1.15,2013-02-13 00:18:00,
2013-02-12 19:23:00,46.7,41.2,29.95,ENE,60,2.0,8.0,81,0.06,,,0.02,Wunderground v.1.15,2013-02-13 00:23:00,
2013-02-12 19:28:00,46.4,41.2,29.94,ENE,65,2.0,8.0,82,0.04,,,0.02,Wunderground v.1.15,2013-02-13 00:28:00,
2013-02-12 19:33:00,46.3,41.7,29.93,ENE,75,2.0,8.0,84,0.04,,,0.03,Wunderground v.1.15,2013-02-13 00:33:00,
2013-02-12 19:43:00,45.7,41.4,29.94,ENE,71,0.0,8.0,85,0.04,,,0.03,Wunderground v.1.15,2013-02-13 00:43:00,
2013-02-12 19:48:00,45.4,41.5,29.95,ENE,71,0.0,8.0,86,0.04,,,0.04,Wunderground v.1.15,2013-02-13 00:48:00,
2013-02-12 19:53:00,45.1,41.2,29.93,ENE,71,0.0,8.0,86,0.04,,,0.04,Wunderground v.1.15,2013-02-13 00:53:00,
2013-02-12 19:58:00,45.1,41.8,29.94,NNE,18,1.0,8.0,88,0.04,,,0.04,Wunderground v.1.15,2013-02-13 00:58:00,
2013-02-12 20:03:00,44.8,42.0,29.94,NNE,13,2.0,8.0,90,0.04,,,0.05,Wunderground v.1.15,2013-02-13 01:03:00,
2013-02-12 20:12:00,44.5,42.0,29.92,ENE,63,2.0,8.0,91,0.04,,,0.05,Wunderground v.1.15,2013-02-13 01:12:00,
2013-02-12 20:17:00,44.6,41.6,29.92,NE,51,2.0,8.0,89,0.04,,,0.05,Wunderground v.1.15,2013-02-13 01:17:00,
2013-02-12 20:22:00,44.8,41.5,29.93,ENE,57,3.0,8.0,88,0.00,,,0.06,Wunderground v.1.15,2013-02-13 01:22:00,
2013-02-12 20:27:00,44.7,41.4,29.92,East,88,3.0,3.0,88,0.00,,,0.06,Wunderground v.1.15,2013-02-13 01:27:00,
2013-02-12 20:32:00,44.6,41.3,29.93,ENE,72,3.0,8.0,88,0.00,,,0.06,Wunderground v.1.15,2013-02-13 01:32:00,
2013-02-12 20:37:00,44.5,41.2,29.92,NE,53,2.0,8.0,88,0.00,,,0.06,Wunderground v.1.15,2013-02-13 01:37:00,
2013-02-12 20:43:00,44.5,40.9,29.91,East,96,2.0,8.0,87,0.00,,,0.06,Wunderground v.1.15,2013-02-13 01:43:00,
2013-02-12 20:48:00,44.7,41.1,29.92,ENE,61,2.0,2.0,87,0.00,,,0.06,Wunderground v.1.15,2013-02-13 01:48:00,
2013-02-12 20:53:00,44.7,40.8,29.92,NE,40,2.0,8.0,86,0.00,,,0.06,Wunderground v.1.15,2013-02-13 01:53:00,
2013-02-12 20:58:00,44.8,41.8,29.92,North,9,2.0,8.0,89,0.00,,,0.06,Wunderground v.1.15,2013-02-13 01:58:00,
2013-02-12 21:03:00,44.4,41.7,29.92,North,352,3.0,8.0,90,0.00,,,0.06,Wunderground v.1.15,2013-02-13 02:03:00,
2013-02-12 21:08:00,44.2,41.7,29.92,North,352,2.0,2.0,91,0.00,,,0.06,Wunderground v.1.15,2013-02-13 02:08:00,
2013-02-12 21:18:00,44.2,41.7,29.92,NNE,25,1.0,8.0,91,0.00,,,0.06,Wunderground v.1.15,2013-02-13 02:18:00,
2013-02-12 21:23:00,44.2,41.7,29.93,NNE,30,3.0,8.0,91,0.00,,,0.06,Wunderground v.1.15,2013-02-13 02:23:00,
2013-02-12 21:28:00,44.1,41.6,29.93,NNE,21,3.0,8.0,91,0.00,,,0.06,Wunderground v.1.15,2013-02-13 02:28:00,
2013-02-12 21:33:00,44.1,41.4,29.92,NE,50,2.0,8.0,90,0.00,,,0.06,Wunderground v.1.15,2013-02-13 02:33:00,
2013-02-12 21:38:00,44.2,41.5,29.91,ENE,71,2.0,8.0,90,0.00,,,0.06,Wunderground v.1.15,2013-02-13 02:38:00,
2013-02-12 21:48:00,44.3,41.6,29.90,ENE,72,1.0,1.0,90,0.00,,,0.06,Wunderground v.1.15,2013-02-13 02:48:00,
2013-02-12 21:53:00,44.3,41.3,29.91,NE,34,1.0,4.0,89,0.00,,,0.06,Wunderground v.1.15,2013-02-13 02:53:00,
2013-02-12 21:58:00,44.3,41.8,29.90,NE,43,2.0,2.0,91,0.00,,,0.06,Wunderground v.1.15,2013-02-13 02:58:00,
2013-02-12 22:03:00,44.1,41.6,29.90,NE,40,2.0,8.0,91,0.00,,,0.06,Wunderground v.1.15,2013-02-13 03:03:00,
2013-02-12 22:08:00,44.1,41.6,29.87,NE,56,2.0,8.0,91,0.00,,,0.06,Wunderground v.1.15,2013-02-13 03:08:00,
2013-02-12 22:13:00,44.2,41.5,29.88,NE,39,3.0,8.0,90,0.00,,,0.06,Wunderground v.1.15,2013-02-13 03:13:00,
2013-02-12 22:23:00,44.1,41.4,29.89,NE,41,4.0,8.0,90,0.00,,,0.06,Wunderground v.1.15,2013-02-13 03:23:00,
2013-02-12 22:28:00,44.0,41.3,29.89,ENE,71,3.0,3.0,90,0.00,,,0.06,Wunderground v.1.15,2013-02-13 03:28:00,
2013-02-12 22:33:00,44.1,41.4,29.90,ENE,67,2.0,8.0,90,0.00,,,0.06,Wunderground v.1.15,2013-02-13 03:33:00,
2013-02-12 22:38:00,44.0,41.3,29.90,NE,43,1.0,8.0,90,0.00,,,0.06,Wunderground v.1.15,2013-02-13 03:38:00,
2013-02-12 22:43:00,44.1,41.1,29.89,NE,53,2.0,8.0,89,0.00,,,0.06,Wunderground v.1.15,2013-02-13 03:43:00,
2013-02-12 22:53:00,44.3,41.3,29.88,NE,41,2.0,5.0,89,0.00,,,0.06,Wunderground v.1.15,2013-02-13 03:53:00,
2013-02-12 22:58:00,44.3,41.3,29.89,NE,37,3.0,3.0,89,0.00,,,0.06,Wunderground v.1.15,2013-02-13 03:58:00,
2013-02-12 23:03:00,44.4,41.4,29.88,NE,37,3.0,8.0,89,0.00,,,0.06,Wunderground v.1.15,2013-02-13 04:03:00,
2013-02-12 23:08:00,44.3,41.3,29.88,NE,34,2.0,8.0,89,0.00,,,0.06,Wunderground v.1.15,2013-02-13 04:08:00,
2013-02-12 23:13:00,44.3,41.6,29.88,North,4,2.0,8.0,90,0.00,,,0.06,Wunderground v.1.15,2013-02-13 04:13:00,
2013-02-12 23:18:00,44.1,41.4,29.87,NE,47,1.0,1.0,90,0.00,,,0.06,Wunderground v.1.15,2013-02-13 04:18:00,
2013-02-12 23:28:00,44.1,41.4,29.87,NE,37,2.0,2.0,90,0.00,,,0.07,Wunderground v.1.15,2013-02-13 04:28:00,
2013-02-12 23:33:00,44.0,41.3,29.86,ENE,60,2.0,8.0,90,0.00,,,0.07,Wunderground v.1.15,2013-02-13 04:33:00,
2013-02-12 23:38:00,44.0,41.3,29.85,NE,45,1.0,8.0,90,0.00,,,0.07,Wunderground v.1.15,2013-02-13 04:38:00,
2013-02-12 23:43:00,44.0,41.3,29.84,ENE,69,1.0,8.0,90,0.00,,,0.07,Wunderground v.1.15,2013-02-13 04:43:00,
2013-02-12 23:48:00,43.9,41.4,29.84,ENE,75,1.0,8.0,91,0.00,,,0.07,Wunderground v.1.15,2013-02-13 04:48:00,
2013-02-12 23:57:00,43.8,41.3,29.84,East,81,1.0,1.0,91,0.00,,,0.07,Wunderground v.1.15,2013-02-13 04:57:00,